Redondo Beach, California
Current Conditions -  °F | °C
As of 9:53 AM on Monday 22 Dec 2014 (Local Time) from KHHR Reporting Station
Haze Haze  
Wind Chill: 63°   Ceiling: Unl
Heat Index: 63°   Visibility: 6mi
Dew Point: 51°   Wind: 0mph
Humidity: 65%   Direction: NA
Pressure: 30.06"   Gusts: NA
Location:  33.84°N, 118.38°W
Report Text: KHHR 221753Z 00000KT 6SM HZ CLR 17/11 A3006 RMK AO2 SLP179 T01720106 10172 20111 51006
Loading
Personal Weather Stations






























Interactive Weather Map New forecast layout! Learn more

10-Day Weather Forecast

Advertisements
Track Severe Weather on mobile